Date,TemperatureHighF,TemperatureAvgF,TemperatureLowF,DewpointHighF,DewpointAvgF,DewpointLowF,HumidityHigh,HumidityAvg,HumidityLow,PressureMaxIn,PressureMinIn,WindSpeedMaxMPH,WindSpeedAvgMPH,GustSpeedMaxMPH,PrecipitationSumIn
2013-7-1,87.0,74.5,68.0,71.0,68.2,66.0,96,82,60,29.11,29.00,6,3,81,0.55
2013-7-2,80.0,71.7,67.0,72.0,68.9,66.0,97,91,76,29.27,29.11,7,2,34,2.07
2013-7-3,85.0,73.2,64.0,73.0,69.2,63.0,97,88,64,29.34,29.26,7,3,55,0.60
2013-7-4,83.0,71.1,64.0,74.0,68.2,63.0,97,91,74,29.37,29.28,5,2,34,2.30
2013-7-5,88.0,71.0,68.0,74.0,68.9,67.0,98,94,60,29.38,29.32,3,1,29,1.80
2013-7-6,88.0,73.1,69.0,75.0,70.0,68.0,98,92,56,29.36,29.23,5,2,42,0.50
2013-7-7,88.0,75.8,71.0,74.0,71.1,70.0,98,87,59,29.32,29.22,6,3,17,0.70
2013-7-8,89.0,73.3,69.0,72.0,69.6,68.0,97,89,53,29.33,29.24,6,2,84,0.20
2013-7-9,95.0,76.6,68.0,74.0,69.9,67.0,98,83,42,29.31,29.19,4,2,37,0.20
2013-7-10,89.0,73.5,68.0,74.0,65.8,-99.9,97,83,60,29.27,29.11,5,2,14,0.70
2013-7-11,84.0,74.8,68.0,74.0,70.7,67.0,98,88,66,29.14,29.03,3,1,10,0.50
2013-7-12,91.0,72.8,65.0,74.0,69.0,64.0,98,90,54,29.17,29.04,10,2,38,1.40
2013-7-13,83.0,71.8,64.0,70.0,66.7,63.0,98,86,64,29.26,29.16,10,4,31,1.70
2013-7-14,86.0,74.3,69.0,74.0,70.0,68.0,97,87,65,29.42,29.24,5,3,59,0.40
2013-7-15,92.0,76.2,67.0,71.0,68.0,66.0,98,80,42,29.46,29.39,5,2,51,0.20
2013-7-16,97.0,83.4,72.0,73.0,70.2,66.0,95,69,37,29.42,29.35,3,2,9,0.00
2013-7-17,96.0,75.4,69.0,78.0,70.2,68.0,97,86,47,29.40,29.31,6,2,22,0.40
2013-7-18,97.0,79.4,68.0,75.0,70.7,67.0,98,78,48,29.34,29.21,4,2,13,0.20
2013-7-19,95.0,77.3,67.0,74.0,70.2,66.0,98,82,46,29.26,29.13,5,2,59,0.00
2013-7-20,91.0,73.9,69.0,75.0,69.2,-99.9,98,89,55,29.18,29.10,9,2,102,2.40
2013-7-21,90.0,73.1,70.0,74.0,71.2,69.0,99,95,56,29.16,29.08,7,1,74,1.90
2013-7-22,88.0,73.8,69.0,73.0,70.5,68.0,99,91,58,29.16,29.00,5,2,19,0.20
2013-7-23,94.0,75.1,67.0,73.0,69.3,66.0,97,84,40,29.03,29.00,4,2,50,0.10
2013-7-24,93.0,73.9,66.0,73.0,68.6,65.0,97,85,52,29.00,29.00,8,2,20,0.00
2013-7-25,90.0,72.1,65.0,73.0,66.6,64.0,96,84,46,29.16,29.00,4,2,14,0.00
2013-7-26,89.0,74.6,66.0,70.0,67.8,65.0,97,82,50,29.25,29.15,6,2,16,0.00
2013-7-27,83.0,72.7,68.0,72.0,68.9,63.0,98,89,67,29.17,29.06,4,2,16,1.20
2013-7-28,87.0,72.0,68.0,70.0,68.3,67.0,97,89,52,29.15,29.06,6,2,17,0.10
2013-7-29,90.0,70.3,62.0,70.0,64.9,61.0,97,86,42,29.30,29.15,4,2,50,0.00
2013-7-30,86.0,71.9,64.0,71.0,63.9,58.0,93,77,49,29.37,29.27,5,3,35,0.00
2013-7-31,81.0,73.0,69.0,71.0,68.4,65.0,95,86,69,29.31,29.13,7,2,42,0.10